createdAt,value
2022-09-12T00:00:42.049Z,61.70
2022-09-12T00:02:15.319Z,61.50
2022-09-12T00:03:49.082Z,61.50
2022-09-12T00:05:23.267Z,61.50
2022-09-12T00:06:57.515Z,61.60
2022-09-12T00:08:30.755Z,61.80
2022-09-12T00:10:08.991Z,61.70
2022-09-12T00:11:49.098Z,61.70
2022-09-12T00:13:27.128Z,61.60
2022-09-12T00:15:03.172Z,61.50
2022-09-12T00:16:39.703Z,61.50
2022-09-12T00:18:17.793Z,61.50
2022-09-12T00:19:51.199Z,61.40
2022-09-12T00:21:26.434Z,61.40
2022-09-12T00:22:59.891Z,61.30
2022-09-12T00:24:33.934Z,61.40
2022-09-12T00:26:11.467Z,61.50
2022-09-12T00:27:46.120Z,61.60
2022-09-12T00:29:23.197Z,61.60
2022-09-12T00:30:57.288Z,61.80
2022-09-12T00:32:30.967Z,61.80
2022-09-12T00:34:04.485Z,61.80
2022-09-12T00:35:48.624Z,61.90
2022-09-12T00:37:21.907Z,62.10
2022-09-12T00:38:56.113Z,61.90
2022-09-12T00:40:28.765Z,62.00
2022-09-12T00:42:10.145Z,61.90
2022-09-12T00:43:48.061Z,62.00
2022-09-12T00:45:30.620Z,62.00
2022-09-12T00:47:15.106Z,62.10
2022-09-12T00:48:57.914Z,62.00
2022-09-12T00:50:33.508Z,61.90
2022-09-12T00:52:14.673Z,61.80
2022-09-12T00:53:59.840Z,61.90
2022-09-12T00:55:39.355Z,61.90
2022-09-12T00:57:17.401Z,61.90
2022-09-12T00:59:01.424Z,62.00
2022-09-12T01:00:43.529Z,61.90
2022-09-12T01:02:26.559Z,61.90
2022-09-12T01:04:06.340Z,61.70
2022-09-12T01:05:55.756Z,61.70
2022-09-12T01:07:30.726Z,61.80
2022-09-12T01:09:05.890Z,62.70
2022-09-12T01:10:45.055Z,62.00
2022-09-12T01:12:24.526Z,62.00
2022-09-12T01:14:01.730Z,62.10
2022-09-12T01:15:43.139Z,62.20
2022-09-12T01:17:21.066Z,62.20
2022-09-12T01:19:19.291Z,62.20
2022-09-12T01:21:15.767Z,62.50
2022-09-12T01:23:44.354Z,62.80
2022-09-12T01:25:34.097Z,62.60
2022-09-12T01:27:48.650Z,62.20
2022-09-12T01:30:18.853Z,62.00
2022-09-12T01:32:01.651Z,62.00
2022-09-12T01:33:57.174Z,61.90
2022-09-12T01:35:42.539Z,61.90
2022-09-12T01:37:28.502Z,62.00
2022-09-12T01:39:05.052Z,62.00
2022-09-12T01:41:05.765Z,62.00
2022-09-12T01:42:53.851Z,62.00
2022-09-12T01:44:39.265Z,61.90
2022-09-12T01:46:20.827Z,62.10
2022-09-12T01:48:08.258Z,62.10
2022-09-12T01:49:53.321Z,62.20
2022-09-12T01:51:34.017Z,62.20
2022-09-12T01:53:21.357Z,62.10
2022-09-12T01:55:09.577Z,62.30
2022-09-12T01:56:48.237Z,62.60
2022-09-12T01:58:26.884Z,62.60
2022-09-12T02:00:11.428Z,62.60
2022-09-12T02:02:10.435Z,62.70
2022-09-12T02:03:55.318Z,62.60
2022-09-12T02:05:35.581Z,62.60
2022-09-12T02:07:20.472Z,62.60
2022-09-12T02:09:04.027Z,62.60
2022-09-12T02:10:46.192Z,62.60
2022-09-12T02:12:35.371Z,62.60
2022-09-12T02:14:20.309Z,62.50
2022-09-12T02:16:05.355Z,62.50
2022-09-12T02:17:51.910Z,62.50
2022-09-12T02:19:32.642Z,62.50
2022-09-12T02:21:08.755Z,62.30
2022-09-12T02:22:46.572Z,62.20
2022-09-12T02:24:26.056Z,62.10
2022-09-12T02:26:05.839Z,62.00
2022-09-12T02:27:47.237Z,62.10
2022-09-12T02:29:23.722Z,62.30
2022-09-12T02:31:04.896Z,62.30
2022-09-12T02:32:47.657Z,62.50
2022-09-12T02:34:45.298Z,62.40
2022-09-12T02:36:34.899Z,62.30
2022-09-12T02:38:14.519Z,62.30
2022-09-12T02:39:49.510Z,62.30
2022-09-12T02:41:24.041Z,62.30
2022-09-12T02:43:00.926Z,62.30
2022-09-12T02:44:39.111Z,62.30
2022-09-12T02:46:20.378Z,62.20
2022-09-12T02:48:04.262Z,62.20
2022-09-12T02:49:40.896Z,62.30
2022-09-12T02:51:20.391Z,62.20
2022-09-12T02:53:04.570Z,62.20
2022-09-12T02:54:41.068Z,62.20
2022-09-12T02:56:22.047Z,62.20
2022-09-12T02:57:54.373Z,62.10
2022-09-12T03:00:41.643Z,62.10
2022-09-12T03:02:35.576Z,62.10
2022-09-12T03:04:41.501Z,62.10
2022-09-12T03:06:31.164Z,62.10
2022-09-12T03:08:36.942Z,62.10
2022-09-12T03:10:32.680Z,62.00
2022-09-12T03:12:27.833Z,62.10
2022-09-12T03:14:22.272Z,62.00
2022-09-12T03:16:18.191Z,62.00
2022-09-12T03:18:24.446Z,62.10
2022-09-12T03:20:09.476Z,62.50
2022-09-12T03:22:01.478Z,62.40
2022-09-12T03:23:46.057Z,62.60
2022-09-12T03:25:24.916Z,62.40
2022-09-12T03:27:08.856Z,62.60
2022-09-12T03:28:48.189Z,62.50
2022-09-12T03:30:33.632Z,62.40
2022-09-12T03:32:07.364Z,62.30
2022-09-12T03:33:40.700Z,62.30
2022-09-12T03:35:22.995Z,62.20
2022-09-12T03:37:02.771Z,62.30
2022-09-12T03:38:38.139Z,62.40
2022-09-12T03:40:12.065Z,62.40
2022-09-12T03:41:47.775Z,62.30
2022-09-12T03:43:22.576Z,62.20
2022-09-12T03:44:54.935Z,62.30
2022-09-12T03:46:30.916Z,62.40
2022-09-12T03:48:08.375Z,62.50
2022-09-12T03:49:44.632Z,62.60
2022-09-12T03:51:19.295Z,62.70
2022-09-12T03:52:51.856Z,62.80
2022-09-12T03:54:25.303Z,62.70
2022-09-12T03:56:01.603Z,62.50
2022-09-12T03:57:38.236Z,62.60
2022-09-12T03:59:21.216Z,62.50
2022-09-12T04:00:59.169Z,62.40
2022-09-12T04:02:35.412Z,62.30
2022-09-12T04:04:12.979Z,62.30
2022-09-12T04:05:47.451Z,62.40
2022-09-12T04:07:21.303Z,62.50
2022-09-12T04:08:56.789Z,62.40
2022-09-12T04:10:30.003Z,62.20
2022-09-12T04:12:07.309Z,62.30
2022-09-12T04:13:42.840Z,62.20
2022-09-12T04:15:18.337Z,62.30
2022-09-12T04:16:53.439Z,62.50
2022-09-12T04:18:27.381Z,62.40
2022-09-12T04:20:05.512Z,62.50
2022-09-12T04:21:40.366Z,62.40
2022-09-12T04:23:16.389Z,62.40
2022-09-12T04:24:52.874Z,62.50
2022-09-12T04:26:31.603Z,62.40
2022-09-12T04:28:06.226Z,62.30
2022-09-12T04:29:40.683Z,62.20
2022-09-12T04:31:15.646Z,62.10
2022-09-12T04:32:48.935Z,62.20
2022-09-12T04:34:25.327Z,62.30
2022-09-12T04:36:05.028Z,62.50
2022-09-12T04:37:44.131Z,62.50
2022-09-12T04:39:19.476Z,62.50
2022-09-12T04:40:57.022Z,62.30
2022-09-12T04:42:31.111Z,62.30
2022-09-12T04:44:10.228Z,62.30
2022-09-12T04:45:45.441Z,62.40
2022-09-12T04:47:18.947Z,62.30
2022-09-12T04:48:56.987Z,62.30
2022-09-12T04:50:33.130Z,62.60
2022-09-12T04:52:06.731Z,62.70
2022-09-12T04:53:41.381Z,62.80
2022-09-12T04:55:18.197Z,62.70
2022-09-12T04:56:55.580Z,62.60
2022-09-12T04:58:28.250Z,62.60
2022-09-12T05:00:13.255Z,62.60
2022-09-12T05:01:47.068Z,62.70
2022-09-12T05:03:25.156Z,62.60
2022-09-12T05:04:58.535Z,62.70
2022-09-12T05:06:39.167Z,62.80
2022-09-12T05:08:12.392Z,62.90
2022-09-12T05:09:45.946Z,62.90
2022-09-12T05:11:36.849Z,63.00
2022-09-12T05:13:14.776Z,63.10
2022-09-12T05:14:49.171Z,63.00
2022-09-12T05:16:27.196Z,62.90
2022-09-12T05:18:00.700Z,62.80
2022-09-12T05:19:34.203Z,62.80
2022-09-12T05:21:14.176Z,62.70
2022-09-12T05:22:50.067Z,62.80
2022-09-12T05:24:28.696Z,62.80
2022-09-12T05:26:04.213Z,62.80
2022-09-12T05:27:41.376Z,62.80
2022-09-12T05:29:16.594Z,62.90
2022-09-12T05:31:02.850Z,62.80
2022-09-12T05:32:38.384Z,63.00
2022-09-12T05:34:12.903Z,62.90
2022-09-12T05:35:54.209Z,62.90
2022-09-12T05:37:27.618Z,63.00
2022-09-12T05:39:04.852Z,62.90
2022-09-12T05:40:39.042Z,63.00
2022-09-12T05:42:14.707Z,63.10
2022-09-12T05:43:54.434Z,63.10
2022-09-12T05:45:28.030Z,63.40
2022-09-12T05:47:01.327Z,63.40
2022-09-12T05:48:35.188Z,63.50
2022-09-12T05:50:12.280Z,63.60
2022-09-12T05:51:47.256Z,63.70
2022-09-12T05:53:20.297Z,63.80
2022-09-12T05:54:53.757Z,64.00
2022-09-12T05:56:30.942Z,64.00
2022-09-12T05:58:12.176Z,64.00
2022-09-12T05:59:46.783Z,64.00
2022-09-12T06:01:21.074Z,64.20
2022-09-12T06:02:54.764Z,64.40
2022-09-12T06:04:29.165Z,64.50
2022-09-12T06:06:07.530Z,64.70
2022-09-12T06:07:45.840Z,64.90
2022-09-12T06:09:19.292Z,65.00
2022-09-12T06:11:02.450Z,65.00
2022-09-12T06:12:35.819Z,65.20
2022-09-12T06:14:10.884Z,65.30
2022-09-12T06:15:45.508Z,65.50
2022-09-12T06:17:20.838Z,65.60
2022-09-12T06:18:57.615Z,65.60
2022-09-12T06:20:32.644Z,65.90
2022-09-12T06:22:08.923Z,66.00
2022-09-12T06:23:46.988Z,66.00
2022-09-12T06:25:22.150Z,66.10
2022-09-12T06:26:59.323Z,66.40
2022-09-12T06:28:34.367Z,66.40
2022-09-12T06:30:11.699Z,66.50
2022-09-12T06:31:46.892Z,66.60
2022-09-12T06:33:20.923Z,66.80
2022-09-12T06:34:54.910Z,66.80
2022-09-12T06:36:30.780Z,66.80
2022-09-12T06:38:07.840Z,67.10
2022-09-12T06:39:41.301Z,67.10
2022-09-12T06:41:18.249Z,67.20
2022-09-12T06:42:51.677Z,67.50
2022-09-12T06:44:38.451Z,67.60
2022-09-12T06:46:13.406Z,67.80
2022-09-12T06:47:48.234Z,68.70
2022-09-12T06:49:22.194Z,68.20
2022-09-12T06:50:59.855Z,68.60
2022-09-12T06:52:36.087Z,69.10
2022-09-12T06:54:11.684Z,69.30
2022-09-12T06:55:49.883Z,69.50
2022-09-12T06:57:28.035Z,69.50
2022-09-12T06:59:01.619Z,69.80
2022-09-12T07:00:35.127Z,70.00
2022-09-12T07:02:12.411Z,70.40
2022-09-12T07:03:51.309Z,70.90
2022-09-12T07:05:26.495Z,71.40
2022-09-12T07:07:05.392Z,71.40
2022-09-12T07:08:42.086Z,71.60
2022-09-12T07:10:22.199Z,71.90
2022-09-12T07:11:56.043Z,71.80
2022-09-12T07:13:34.776Z,72.20
2022-09-12T07:15:10.417Z,72.40
2022-09-12T07:16:44.976Z,72.40
2022-09-12T07:18:18.539Z,72.60
2022-09-12T07:19:53.289Z,72.80
2022-09-12T07:21:27.112Z,73.00
2022-09-12T07:23:00.481Z,73.10
2022-09-12T07:24:33.836Z,73.30
2022-09-12T07:26:10.060Z,73.40
2022-09-12T07:27:51.106Z,73.50
2022-09-12T07:29:36.383Z,73.60
2022-09-12T07:31:13.003Z,73.70
2022-09-12T07:32:46.292Z,73.70
2022-09-12T07:34:19.736Z,73.70
2022-09-12T07:35:58.338Z,73.70
2022-09-12T07:37:32.247Z,73.90
2022-09-12T07:39:07.299Z,73.80
2022-09-12T07:40:41.726Z,73.80
2022-09-12T07:42:15.363Z,73.70
2022-09-12T07:43:50.922Z,73.70
2022-09-12T07:45:24.192Z,73.80
2022-09-12T07:46:57.378Z,73.80
2022-09-12T07:48:32.651Z,73.70
2022-09-12T07:50:07.171Z,73.70
2022-09-12T07:51:47.214Z,73.60
2022-09-12T07:53:20.556Z,73.60
2022-09-12T07:54:54.043Z,73.50
2022-09-12T07:56:33.714Z,73.50
2022-09-12T07:58:15.335Z,73.50
2022-09-12T07:59:53.311Z,73.60
2022-09-12T08:01:27.331Z,73.50
2022-09-12T08:03:02.711Z,73.20
2022-09-12T08:04:37.812Z,73.20
2022-09-12T08:06:14.841Z,73.40
2022-09-12T08:07:49.851Z,73.40
2022-09-12T08:09:24.940Z,73.50
2022-09-12T08:11:06.034Z,73.40
2022-09-12T08:12:39.999Z,73.30
2022-09-12T08:14:13.673Z,73.20
2022-09-12T08:15:48.540Z,73.20
2022-09-12T08:17:22.138Z,73.20
2022-09-12T08:18:55.734Z,73.20
2022-09-12T08:20:32.869Z,73.10
2022-09-12T08:22:06.504Z,73.20
2022-09-12T08:23:41.488Z,73.00
2022-09-12T08:25:14.736Z,73.10
2022-09-12T08:26:48.548Z,73.00
2022-09-12T08:28:23.413Z,73.00
2022-09-12T08:29:56.775Z,72.90
2022-09-12T08:31:31.813Z,72.80
2022-09-12T08:33:05.612Z,72.90
2022-09-12T08:34:41.981Z,73.80
2022-09-12T08:36:22.036Z,73.00
2022-09-12T08:38:06.775Z,73.10
2022-09-12T08:39:44.907Z,73.20
2022-09-12T08:41:30.384Z,73.10
2022-09-12T08:43:20.000Z,73.10
2022-09-12T08:45:10.205Z,73.00
2022-09-12T08:47:04.712Z,73.00
2022-09-12T08:48:40.429Z,73.00
2022-09-12T08:50:21.653Z,73.00
2022-09-12T08:51:57.970Z,73.10
2022-09-12T08:53:37.390Z,73.00
2022-09-12T08:55:34.085Z,72.80
2022-09-12T08:57:11.628Z,72.60
2022-09-12T08:58:47.504Z,72.80
2022-09-12T09:00:22.435Z,73.00
2022-09-12T09:02:04.716Z,73.10
2022-09-12T09:04:09.422Z,73.30
2022-09-12T09:05:52.849Z,73.60
2022-09-12T09:07:55.588Z,73.10
2022-09-12T09:09:47.808Z,72.70
2022-09-12T09:11:48.172Z,72.70
2022-09-12T09:14:05.028Z,72.30
2022-09-12T09:15:59.873Z,72.30
2022-09-12T09:17:39.763Z,72.40
2022-09-12T09:19:21.027Z,72.40
2022-09-12T09:21:04.620Z,72.20
2022-09-12T09:22:46.492Z,72.10
2022-09-12T09:24:28.023Z,71.40
2022-09-12T09:26:25.336Z,71.00
2022-09-12T09:28:17.724Z,70.70
2022-09-12T09:29:56.719Z,69.80
2022-09-12T09:31:39.977Z,70.30
2022-09-12T09:33:30.847Z,70.40
2022-09-12T09:35:18.982Z,70.00
2022-09-12T09:37:03.667Z,69.40
2022-09-12T09:38:49.347Z,68.90
2022-09-12T09:40:31.735Z,68.10
2022-09-12T09:42:25.685Z,68.10
2022-09-12T09:44:03.761Z,67.80
2022-09-12T09:45:44.597Z,67.70
2022-09-12T09:47:20.905Z,67.30
2022-09-12T09:48:59.255Z,66.80
2022-09-12T09:50:36.524Z,66.10
2022-09-12T09:52:17.376Z,65.80
2022-09-12T09:54:00.844Z,65.70
2022-09-12T09:55:46.997Z,64.60
2022-09-12T09:57:41.762Z,64.20
2022-09-12T09:59:21.714Z,62.60
2022-09-12T10:01:01.424Z,63.10
2022-09-12T10:02:40.815Z,62.10
2022-09-12T10:04:26.551Z,62.10
2022-09-12T10:06:22.372Z,61.70
2022-09-12T10:07:55.761Z,62.30
2022-09-12T10:09:33.081Z,61.50
2022-09-12T10:11:17.949Z,61.00
2022-09-12T10:13:07.939Z,60.70
2022-09-12T10:14:58.368Z,61.10
2022-09-12T10:16:34.527Z,60.00
2022-09-12T10:18:08.017Z,60.70
2022-09-12T10:19:42.852Z,59.70
2022-09-12T10:21:30.741Z,59.20
2022-09-12T10:23:30.120Z,58.10
2022-09-12T10:25:11.427Z,58.30
2022-09-12T10:26:56.965Z,57.90
2022-09-12T10:28:37.344Z,57.40
2022-09-12T10:30:21.670Z,57.10
2022-09-12T10:32:03.505Z,57.00
2022-09-12T10:33:45.143Z,57.70
2022-09-12T10:35:22.428Z,56.90
2022-09-12T10:37:05.590Z,56.50
2022-09-12T10:38:53.727Z,55.90
2022-09-12T10:40:31.073Z,55.90
2022-09-12T10:42:06.592Z,55.20
2022-09-12T10:43:44.922Z,54.90
2022-09-12T10:45:31.779Z,54.80
2022-09-12T10:47:22.403Z,54.30
2022-09-12T10:49:21.547Z,53.90
2022-09-12T10:50:57.610Z,52.70
2022-09-12T10:52:31.161Z,53.50
2022-09-12T10:54:11.348Z,53.30
2022-09-12T10:56:07.565Z,52.60
2022-09-12T10:58:13.053Z,52.00
2022-09-12T11:00:15.936Z,51.30
2022-09-12T11:02:04.217Z,52.10
2022-09-12T11:04:07.363Z,52.20
2022-09-12T11:05:54.026Z,51.20
2022-09-12T11:07:47.481Z,50.80
2022-09-12T11:09:31.224Z,50.40
2022-09-12T11:11:18.444Z,50.70
2022-09-12T11:13:07.924Z,50.10
2022-09-12T11:15:05.457Z,50.40
2022-09-12T11:16:54.026Z,50.30
2022-09-12T11:19:01.318Z,50.30
2022-09-12T11:21:09.472Z,50.10
2022-09-12T11:23:12.525Z,49.90
2022-09-12T11:25:19.016Z,50.30
2022-09-12T11:27:11.831Z,49.50
2022-09-12T11:28:59.768Z,49.70
2022-09-12T11:30:45.839Z,49.20
2022-09-12T11:32:54.155Z,49.40
2022-09-12T11:34:51.103Z,48.40
2022-09-12T11:36:40.175Z,48.70
2022-09-12T11:38:55.582Z,47.60
2022-09-12T11:40:38.876Z,47.40
2022-09-12T11:42:27.055Z,48.30
2022-09-12T11:44:13.926Z,47.60
2022-09-12T11:45:51.019Z,47.40
2022-09-12T11:47:29.754Z,47.60
2022-09-12T11:49:17.753Z,47.40
2022-09-12T11:50:55.980Z,47.60
2022-09-12T11:52:40.067Z,46.70
2022-09-12T11:54:23.891Z,45.70
2022-09-12T11:56:09.324Z,46.30
2022-09-12T11:57:50.401Z,46.40
2022-09-12T11:59:39.240Z,46.20
2022-09-12T12:01:18.850Z,45.10
2022-09-12T12:03:04.092Z,45.00
2022-09-12T12:04:45.981Z,45.10
2022-09-12T12:06:29.296Z,44.70
2022-09-12T12:08:08.140Z,44.60
2022-09-12T12:09:55.816Z,44.20
2022-09-12T12:11:37.993Z,43.40
2022-09-12T12:13:27.827Z,43.30
2022-09-12T12:15:03.994Z,43.40
2022-09-12T12:16:42.688Z,43.60
2022-09-12T12:18:24.980Z,43.00
2022-09-12T12:20:08.619Z,43.00
2022-09-12T12:21:45.211Z,43.10
2022-09-12T12:23:29.784Z,43.40
2022-09-12T12:25:33.359Z,42.90
2022-09-12T12:27:48.422Z,42.10
2022-09-12T12:29:44.175Z,42.20
2022-09-12T12:31:24.876Z,41.40
2022-09-12T12:33:01.365Z,42.10
2022-09-12T12:34:36.849Z,41.50
2022-09-12T12:36:32.971Z,41.20
2022-09-12T12:38:30.297Z,40.80
2022-09-12T12:40:11.623Z,40.10
2022-09-12T12:41:48.766Z,40.70
2022-09-12T12:43:38.140Z,40.60
2022-09-12T12:45:48.776Z,39.80
2022-09-12T12:47:25.197Z,39.70
2022-09-12T12:49:11.907Z,41.00
2022-09-12T12:50:45.760Z,40.00
2022-09-12T12:52:20.627Z,41.10
2022-09-12T12:54:00.369Z,40.80
2022-09-12T12:55:50.187Z,40.00
2022-09-12T12:57:50.657Z,40.00
2022-09-12T12:59:24.199Z,39.70
2022-09-12T13:01:15.947Z,39.70
2022-09-12T13:02:57.793Z,39.80
2022-09-12T13:04:34.200Z,40.80
2022-09-12T13:06:20.518Z,40.70
2022-09-12T13:07:59.599Z,40.10
2022-09-12T13:09:44.296Z,39.90
2022-09-12T13:11:33.343Z,39.50
2022-09-12T13:13:09.954Z,39.50
2022-09-12T13:14:56.290Z,39.70
2022-09-12T13:16:37.176Z,38.80
2022-09-12T13:18:16.310Z,39.10
2022-09-12T13:20:00.802Z,39.00
2022-09-12T13:21:57.276Z,39.40
2022-09-12T13:23:33.908Z,39.40
2022-09-12T13:25:26.651Z,39.50
2022-09-12T13:27:00.720Z,39.00
2022-09-12T13:28:34.007Z,39.60
2022-09-12T13:30:14.523Z,39.10
2022-09-12T13:31:52.651Z,38.80
2022-09-12T13:33:43.031Z,38.40
2022-09-12T13:35:30.801Z,38.60
2022-09-12T13:37:50.862Z,38.20
2022-09-12T13:39:29.901Z,38.30
2022-09-12T13:41:27.417Z,38.80
2022-09-12T13:43:16.335Z,38.50
2022-09-12T13:44:53.959Z,38.70
2022-09-12T13:46:33.912Z,38.40
2022-09-12T13:48:15.112Z,39.00
2022-09-12T13:49:50.796Z,38.70
2022-09-12T13:51:29.012Z,38.30
2022-09-12T13:53:06.718Z,38.30
2022-09-12T13:54:40.345Z,37.60
2022-09-12T13:56:20.466Z,37.10
2022-09-12T13:58:00.371Z,37.20
2022-09-12T13:59:40.883Z,37.30
2022-09-12T14:01:17.130Z,37.80
2022-09-12T14:03:11.135Z,38.00
2022-09-12T14:05:12.358Z,37.90
2022-09-12T14:06:50.184Z,37.20
2022-09-12T14:08:25.291Z,37.60
2022-09-12T14:10:01.196Z,37.60
2022-09-12T14:11:41.171Z,37.60
2022-09-12T14:13:21.910Z,37.50
2022-09-12T14:14:55.783Z,38.20
2022-09-12T14:16:31.729Z,37.80
2022-09-12T14:18:08.792Z,38.20
2022-09-12T14:19:43.747Z,38.90
2022-09-12T14:21:34.896Z,38.60
2022-09-12T14:23:20.244Z,38.20
2022-09-12T14:24:54.804Z,36.90
2022-09-12T14:26:34.245Z,36.90
2022-09-12T14:28:16.958Z,36.70
2022-09-12T14:30:02.648Z,36.60
2022-09-12T14:31:39.276Z,36.50
2022-09-12T14:33:22.015Z,36.10
2022-09-12T14:35:20.766Z,35.70
2022-09-12T14:36:57.080Z,35.50
2022-09-12T14:38:37.736Z,36.60
2022-09-12T14:40:20.660Z,36.00
2022-09-12T14:42:06.539Z,35.50
2022-09-12T14:43:46.798Z,36.10
2022-09-12T14:45:28.332Z,35.50
2022-09-12T14:47:15.933Z,35.60
2022-09-12T14:48:54.177Z,35.00
2022-09-12T14:50:32.818Z,35.70
2022-09-12T14:52:16.927Z,36.00
2022-09-12T14:53:49.919Z,36.00
2022-09-12T14:55:33.545Z,35.90
2022-09-12T14:57:28.523Z,35.40
2022-09-12T14:59:31.085Z,35.90
2022-09-12T15:01:26.061Z,36.10
2022-09-12T15:03:26.316Z,36.70
2022-09-12T15:05:20.982Z,35.50
2022-09-12T15:06:54.825Z,35.80
2022-09-12T15:08:28.480Z,35.40
2022-09-12T15:10:07.295Z,35.80
2022-09-12T15:11:41.606Z,35.50
2022-09-12T15:13:20.723Z,35.80
2022-09-12T15:15:00.617Z,35.20
2022-09-12T15:16:34.036Z,36.40
2022-09-12T15:18:07.249Z,36.30
2022-09-12T15:19:40.527Z,36.00
2022-09-12T15:21:18.338Z,35.90
2022-09-12T15:22:54.888Z,35.70
2022-09-12T15:24:32.138Z,35.50
2022-09-12T15:26:06.319Z,35.60
2022-09-12T15:27:42.753Z,35.80
2022-09-12T15:29:20.916Z,36.30
2022-09-12T15:31:20.274Z,35.80
2022-09-12T15:32:59.936Z,35.80
2022-09-12T15:34:38.980Z,36.00
2022-09-12T15:36:24.365Z,36.00
2022-09-12T15:38:01.364Z,35.60
2022-09-12T15:39:36.882Z,36.70
2022-09-12T15:41:13.774Z,36.60
2022-09-12T15:43:01.520Z,37.20
2022-09-12T15:44:35.079Z,37.10
2022-09-12T15:46:16.864Z,37.00
2022-09-12T15:47:57.484Z,36.50
2022-09-12T15:49:31.135Z,37.20
2022-09-12T15:51:09.359Z,37.70
2022-09-12T15:52:45.320Z,37.40
2022-09-12T15:54:21.652Z,37.50
2022-09-12T15:55:55.783Z,38.10
2022-09-12T15:57:32.424Z,38.10
2022-09-12T15:59:08.159Z,39.00
2022-09-12T16:00:43.902Z,39.70
2022-09-12T16:02:28.673Z,39.80
2022-09-12T16:04:06.977Z,40.90
2022-09-12T16:05:51.395Z,41.20
2022-09-12T16:07:24.511Z,41.70
2022-09-12T16:09:00.459Z,41.80
2022-09-12T16:10:36.545Z,42.40
2022-09-12T16:12:09.899Z,42.30
2022-09-12T16:13:43.575Z,42.50
2022-09-12T16:15:20.787Z,42.40
2022-09-12T16:16:57.738Z,43.50
2022-09-12T16:18:32.320Z,43.70
2022-09-12T16:20:06.997Z,43.60
2022-09-12T16:21:40.459Z,43.60
2022-09-12T16:23:14.846Z,43.80
2022-09-12T16:24:48.627Z,44.20
2022-09-12T16:26:21.936Z,44.30
2022-09-12T16:27:55.685Z,44.20
2022-09-12T16:29:29.799Z,44.10
2022-09-12T16:31:05.650Z,44.60
2022-09-12T16:32:39.080Z,44.70
2022-09-12T16:34:14.151Z,44.80
2022-09-12T16:35:47.600Z,45.00
2022-09-12T16:37:21.239Z,45.00
2022-09-12T16:38:55.520Z,45.50
2022-09-12T16:40:29.043Z,46.00
2022-09-12T16:42:02.624Z,46.10
2022-09-12T16:43:38.214Z,46.10
2022-09-12T16:45:13.130Z,46.50
2022-09-12T16:46:46.600Z,46.50
2022-09-12T16:48:20.305Z,46.60
2022-09-12T16:49:55.047Z,46.80
2022-09-12T16:51:31.871Z,46.60
2022-09-12T16:53:05.215Z,47.10
2022-09-12T16:54:38.647Z,47.30
2022-09-12T16:56:12.159Z,47.40
2022-09-12T16:57:46.076Z,47.40
2022-09-12T16:59:19.798Z,47.80
2022-09-12T17:01:02.139Z,48.00
2022-09-12T17:02:35.701Z,48.50
2022-09-12T17:04:10.763Z,48.30
2022-09-12T17:05:45.324Z,48.40
2022-09-12T17:07:18.907Z,48.80
2022-09-12T17:08:54.205Z,49.00
2022-09-12T17:10:27.929Z,49.00
2022-09-12T17:12:01.442Z,49.30
2022-09-12T17:14:02.665Z,49.50
2022-09-12T17:15:43.291Z,49.70
2022-09-12T17:17:22.933Z,49.70
2022-09-12T17:19:04.078Z,49.80
2022-09-12T17:20:41.450Z,50.00
2022-09-12T17:22:23.784Z,50.10
2022-09-12T17:23:59.155Z,50.40
2022-09-12T17:25:33.060Z,50.50
2022-09-12T17:27:06.537Z,50.70
2022-09-12T17:28:40.936Z,51.10
2022-09-12T17:30:14.807Z,51.20
2022-09-12T17:31:48.823Z,51.20
2022-09-12T17:33:22.413Z,51.50
2022-09-12T17:34:55.807Z,51.50
2022-09-12T17:36:31.459Z,51.40
2022-09-12T17:38:06.898Z,51.50
2022-09-12T17:39:40.163Z,51.70
2022-09-12T17:41:16.197Z,51.70
2022-09-12T17:42:49.571Z,51.90
2022-09-12T17:44:24.177Z,52.10
2022-09-12T17:45:58.226Z,52.10
2022-09-12T17:47:31.560Z,52.00
2022-09-12T17:49:08.939Z,52.20
2022-09-12T17:50:43.172Z,52.30
2022-09-12T17:52:16.650Z,52.30
2022-09-12T17:53:55.880Z,53.20
2022-09-12T17:55:32.031Z,53.10
2022-09-12T17:57:06.256Z,52.90
2022-09-12T17:58:40.048Z,52.90
2022-09-12T18:00:16.259Z,52.80
2022-09-12T18:02:08.195Z,52.80
2022-09-12T18:03:41.030Z,52.70
2022-09-12T18:05:15.136Z,52.70
2022-09-12T18:06:48.741Z,52.80
2022-09-12T18:08:23.704Z,52.90
2022-09-12T18:09:59.703Z,53.00
2022-09-12T18:11:32.290Z,53.20
2022-09-12T18:13:05.720Z,53.20
2022-09-12T18:14:39.884Z,53.20
2022-09-12T18:16:15.020Z,53.30
2022-09-12T18:17:48.239Z,53.30
2022-09-12T18:19:23.334Z,53.40
2022-09-12T18:20:56.660Z,53.50
2022-09-12T18:22:30.023Z,53.60
2022-09-12T18:24:04.860Z,53.70
2022-09-12T18:25:40.357Z,53.60
2022-09-12T18:27:14.219Z,53.70
2022-09-12T18:28:47.714Z,53.70
2022-09-12T18:30:22.897Z,53.80
2022-09-12T18:31:56.322Z,53.80
2022-09-12T18:33:30.118Z,53.80
2022-09-12T18:35:04.082Z,53.80
2022-09-12T18:36:46.439Z,53.80
2022-09-12T18:38:23.733Z,53.90
2022-09-12T18:40:04.321Z,53.80
2022-09-12T18:42:00.201Z,53.80
2022-09-12T18:43:37.279Z,54.10
2022-09-12T18:45:16.995Z,54.10
2022-09-12T18:46:55.235Z,54.10
2022-09-12T18:48:28.660Z,54.20
2022-09-12T18:50:01.875Z,54.30
2022-09-12T18:51:40.053Z,54.40
2022-09-12T18:53:14.752Z,54.50
2022-09-12T18:54:48.186Z,54.50
2022-09-12T18:56:23.809Z,54.40
2022-09-12T18:57:58.499Z,54.40
2022-09-12T18:59:32.142Z,54.50
2022-09-12T19:01:14.198Z,54.60
2022-09-12T19:02:49.507Z,54.90
2022-09-12T19:04:23.296Z,54.70
2022-09-12T19:05:56.756Z,54.60
2022-09-12T19:07:30.275Z,54.70
2022-09-12T19:09:08.062Z,54.70
2022-09-12T19:10:41.856Z,54.80
2022-09-12T19:12:15.465Z,54.80
2022-09-12T19:13:52.234Z,54.90
2022-09-12T19:15:25.812Z,55.00
2022-09-12T19:16:59.352Z,55.00
2022-09-12T19:18:34.030Z,55.10
2022-09-12T19:20:08.110Z,55.20
2022-09-12T19:21:41.983Z,55.30
2022-09-12T19:23:15.996Z,55.40
2022-09-12T19:24:49.244Z,55.40
2022-09-12T19:26:24.177Z,55.40
2022-09-12T19:27:57.443Z,55.60
2022-09-12T19:29:32.648Z,55.50
2022-09-12T19:31:07.681Z,55.50
2022-09-12T19:32:41.148Z,55.60
2022-09-12T19:34:16.098Z,55.60
2022-09-12T19:35:50.354Z,55.80
2022-09-12T19:37:23.678Z,56.00
2022-09-12T19:38:57.219Z,55.90
2022-09-12T19:40:31.200Z,55.90
2022-09-12T19:42:04.866Z,55.80
2022-09-12T19:43:38.215Z,55.90
2022-09-12T19:45:13.158Z,55.90
2022-09-12T19:46:46.458Z,56.10
2022-09-12T19:48:20.095Z,56.10
2022-09-12T19:49:54.019Z,56.10
2022-09-12T19:51:27.534Z,56.80
2022-09-12T19:53:00.880Z,56.20
2022-09-12T19:54:34.527Z,56.30
2022-09-12T19:56:09.693Z,56.40
2022-09-12T19:57:43.265Z,56.40
2022-09-12T19:59:16.492Z,56.50
2022-09-12T20:00:51.322Z,56.60
2022-09-12T20:02:27.740Z,56.70
2022-09-12T20:04:01.227Z,56.70
2022-09-12T20:05:37.529Z,56.80
2022-09-12T20:07:14.091Z,56.80
2022-09-12T20:08:48.123Z,56.90
2022-09-12T20:10:21.780Z,57.00
2022-09-12T20:11:55.140Z,57.10
2022-09-12T20:13:29.332Z,57.00
2022-09-12T20:15:04.508Z,57.10
2022-09-12T20:16:39.948Z,57.20
2022-09-12T20:18:15.524Z,57.20
2022-09-12T20:19:49.907Z,57.20
2022-09-12T20:21:30.904Z,57.40
2022-09-12T20:23:05.041Z,57.60
2022-09-12T20:24:38.635Z,57.40
2022-09-12T20:26:11.531Z,57.50
2022-09-12T20:27:45.539Z,57.50
2022-09-12T20:29:21.693Z,57.50
2022-09-12T20:30:55.187Z,57.50
2022-09-12T20:32:30.758Z,57.50
2022-09-12T20:34:05.134Z,57.60
2022-09-12T20:35:38.764Z,57.50
2022-09-12T20:37:12.408Z,57.70
2022-09-12T20:38:50.524Z,58.40
2022-09-12T20:40:24.129Z,57.90
2022-09-12T20:41:57.708Z,57.90
2022-09-12T20:43:30.131Z,58.50
2022-09-12T20:45:03.459Z,57.90
2022-09-12T20:46:37.240Z,57.90
2022-09-12T20:48:11.004Z,58.20
2022-09-12T20:49:44.515Z,58.30
2022-09-12T20:51:18.354Z,58.40
2022-09-12T20:52:51.595Z,58.40
2022-09-12T20:54:25.459Z,58.50
2022-09-12T20:55:58.750Z,58.50
2022-09-12T20:57:32.200Z,58.70
2022-09-12T20:59:06.077Z,58.70
2022-09-12T21:00:40.572Z,58.80
2022-09-12T21:02:16.012Z,58.80
2022-09-12T21:03:51.895Z,58.90
2022-09-12T21:05:25.166Z,58.90
2022-09-12T21:06:59.567Z,58.80
2022-09-12T21:08:33.470Z,58.90
2022-09-12T21:10:08.031Z,58.80
2022-09-12T21:11:40.359Z,58.90
2022-09-12T21:13:14.854Z,58.90
2022-09-12T21:14:48.323Z,59.00
2022-09-12T21:16:24.096Z,58.90
2022-09-12T21:17:57.926Z,59.10
2022-09-12T21:19:32.852Z,59.10
2022-09-12T21:21:07.005Z,59.20
2022-09-12T21:22:41.554Z,59.40
2022-09-12T21:24:15.599Z,59.40
2022-09-12T21:25:52.471Z,59.30